KCEF/CEF METAR and TAF weather

Enter ICAO airport designator
Station Type Date Time Source
KCEF METAR 2021/10/22 17:56 UTC NOAA

KCEF 221756Z 35008KT 10SM BKN050 20/10 A2983 RMK AO2A SLP107 T01950097 10217 20149


Station Type Date Time Source
KCEF Decoded METAR 2021/10/22 17:56 UTC NOAA

Chicopee Falls / Westover Air Force Base, MA, United States (KCEF) 42-12N 072-32W 75M
Oct 22, 2021 - 01:56 PM EDT / 2021.10.22 1756 UTC
Wind: from the N (350 degrees) at 9 MPH (8 KT):0
Visibility: 10 mile(s):0
Sky conditions: mostly cloudy
Temperature: 67.1 F (19.5 C)
Dew Point: 49.5 F (9.7 C)
Relative Humidity: 53%
Pressure (altimeter): 29.83 in. Hg (1010 hPa)
ob: KCEF 221756Z 35008KT 10SM BKN050 20/10 A2983 RMK AO2A SLP107 T01950097 10217 20149
cycle: 18

Station Type Date Time Source
KCEF TAF 2021/10/22 18:13 UTC NOAA

TAF KCEF 221800Z 2218/2324 32012KT 9999 BKN050 QNH2983INS
BECMG 2221/2222 29007KT 9999 SCT060 BKN250 QNH2987INS
BECMG 2312/2313 VRB06KT 9999 SCT050 BKN070 OVC110 620703 QNH2993INS
TEMPO 2313/2317 -RA OVC050
BECMG 2317/2318 29007KT 9999 SCT100 BKN250 QNH2991INS TX20/2219Z TN04/2311Z

Example: see airport list